Time;durP1;ratioP1;P1;durP2;ratioP2;P2;SDS_P1;SDS_P2;PMS_P1;PMS_P2;Temp;Humidity;BMP_temperature;BMP_pressure;BME280_temperature;BME280_humidity;BME280_pressure;Samples;Min_cycle;Max_cycle;Signal;HPM_P1;HPM_P2
2020/12/18 00:01:09;;;;;;;27.02;8.93;;;4.50;99.90;;;;;;5063959;28;20028;-72
2020/12/18 00:03:36;;;;;;;25.83;8.32;;;4.50;99.90;;;;;;5063963;28;20480;-72
2020/12/18 00:06:03;;;;;;;23.02;8.57;;;4.40;99.90;;;;;;5058873;28;20139;-72
2020/12/18 00:08:30;;;;;;;26.50;8.65;;;4.40;99.90;;;;;;5056286;28;20533;-72
2020/12/18 00:10:57;;;;;;;29.17;9.55;;;4.40;99.90;;;;;;5057142;28;20090;-72
2020/12/18 00:13:23;;;;;;;26.58;8.57;;;4.50;99.90;;;;;;5074223;28;20135;-72
2020/12/18 00:15:52;;;;;;;30.45;9.00;;;4.50;99.90;;;;;;5064888;28;20515;-72
2020/12/18 00:18:19;;;;;;;22.00;7.32;;;4.50;99.90;;;;;;5066396;28;20072;-72
2020/12/18 00:20:54;;;;;;;26.35;9.13;;;4.50;99.90;;;;;;5041413;28;20102;-72
2020/12/18 00:23:20;;;;;;;24.83;8.20;;;4.50;99.90;;;;;;5059612;28;20135;-72
2020/12/18 00:25:49;;;;;;;25.65;8.35;;;4.50;99.90;;;;;;5052722;28;20379;-72
2020/12/18 00:28:17;;;;;;;22.98;7.35;;;4.50;99.90;;;;;;5059273;28;20104;-72
2020/12/18 00:30:46;;;;;;;30.45;7.82;;;4.50;99.90;;;;;;5056275;28;20048;-72
2020/12/18 00:33:13;;;;;;;26.85;7.75;;;4.50;99.90;;;;;;5085264;28;20051;-72
2020/12/18 00:35:40;;;;;;;27.27;8.32;;;4.50;99.90;;;;;;5062990;28;20059;-72
2020/12/18 00:38:06;;;;;;;22.83;7.38;;;4.50;99.90;;;;;;5050569;28;20029;-72
2020/12/18 00:40:33;;;;;;;22.80;6.75;;;4.40;99.90;;;;;;5050871;28;20044;-72
2020/12/18 00:43:00;;;;;;;21.98;7.43;;;4.40;99.90;;;;;;5061820;28;20037;-72
2020/12/18 00:45:26;;;;;;;28.58;9.07;;;4.40;99.90;;;;;;5043664;28;20095;-72
2020/12/18 00:47:53;;;;;;;23.02;7.63;;;4.40;99.90;;;;;;5058892;28;20045;-72
2020/12/18 00:50:19;;;;;;;27.83;7.90;;;4.40;99.90;;;;;;5057238;28;20511;-72
2020/12/18 00:52:46;;;;;;;23.27;8.05;;;4.40;99.90;;;;;;5062950;28;20048;-73
2020/12/18 00:55:13;;;;;;;26.30;7.82;;;4.50;99.90;;;;;;5063941;28;20461;-72
2020/12/18 00:57:39;;;;;;;24.73;7.38;;;4.40;99.90;;;;;;5067213;28;20045;-72
2020/12/18 01:00:06;;;;;;;21.70;7.95;;;4.50;99.90;;;;;;5068138;28;20049;-72
2020/12/18 01:02:56;;;;;;;20.08;6.82;;;4.40;99.90;;;;;;5046169;28;20040;-72
2020/12/18 01:05:23;;;;;;;26.98;7.00;;;4.40;99.90;;;;;;5045213;28;20102;-72
2020/12/18 01:07:50;;;;;;;23.70;7.50;;;4.40;99.90;;;;;;5048666;28;20472;-72
2020/12/18 01:10:17;;;;;;;22.33;6.85;;;4.40;99.90;;;;;;5066749;28;20058;-72
2020/12/18 01:12:47;;;;;;;19.67;6.70;;;4.40;99.90;;;;;;5069989;28;20047;-72
2020/12/18 01:15:14;;;;;;;21.65;6.20;;;4.40;99.90;;;;;;5075993;28;20721;-72
2020/12/18 01:17:41;;;;;;;24.25;7.05;;;4.50;99.90;;;;;;5063104;28;20045;-73
2020/12/18 01:20:07;;;;;;;19.67;6.93;;;4.50;99.90;;;;;;5053728;28;20138;-72
2020/12/18 01:22:34;;;;;;;20.67;6.32;;;4.50;99.90;;;;;;5062680;28;20037;-72
2020/12/18 01:25:02;;;;;;;22.40;7.30;;;4.50;99.90;;;;;;5066695;28;20048;-72
2020/12/18 01:27:28;;;;;;;20.15;7.53;;;4.50;99.90;;;;;;5067392;28;20045;-72
2020/12/18 01:29:55;;;;;;;20.50;7.72;;;4.50;99.90;;;;;;5058711;28;20041;-72
2020/12/18 01:32:27;;;;;;;19.90;6.60;;;4.60;99.90;;;;;;5063609;28;20514;-72
2020/12/18 01:34:55;;;;;;;21.75;6.35;;;4.60;99.90;;;;;;5068495;28;20518;-72
2020/12/18 01:37:24;;;;;;;25.77;8.35;;;4.60;99.90;;;;;;5068225;28;20139;-73
2020/12/18 01:39:55;;;;;;;24.95;7.68;;;4.60;99.90;;;;;;5071946;28;20055;-72
2020/12/18 01:42:29;;;;;;;24.10;7.78;;;4.60;99.90;;;;;;5064939;28;20480;-72
2020/12/18 01:44:56;;;;;;;23.77;7.00;;;4.70;99.90;;;;;;5059735;28;20043;-72
2020/12/18 01:47:30;;;;;;;24.58;7.63;;;4.60;99.90;;;;;;5061121;28;20040;-73
2020/12/18 01:50:04;;;;;;;22.00;7.00;;;4.60;99.90;;;;;;5066753;28;20453;-72
2020/12/18 01:52:40;;;;;;;24.70;7.07;;;4.60;99.90;;;;;;5053340;28;20427;-72
2020/12/18 01:55:10;;;;;;;20.75;6.68;;;4.60;99.90;;;;;;5071257;28;20044;-73
2020/12/18 01:57:44;;;;;;;21.20;6.57;;;4.60;99.90;;;;;;5049929;28;20507;-73
2020/12/18 02:00:12;;;;;;;20.67;5.82;;;4.60;99.90;;;;;;5064765;28;20081;-73
2020/12/18 02:02:42;;;;;;;22.20;6.90;;;4.60;99.90;;;;;;5068763;28;20365;-72
2020/12/18 02:05:29;;;;;;;16.90;5.55;;;4.60;99.90;;;;;;5057765;28;20160;-73
2020/12/18 02:08:04;;;;;;;18.20;6.35;;;4.60;99.90;;;;;;5066243;28;20144;-72
2020/12/18 02:10:51;;;;;;;19.85;6.97;;;4.60;99.90;;;;;;5030204;28;21021;-72
2020/12/18 02:13:21;;;;;;;14.32;5.38;;;4.60;99.90;;;;;;5018819;28;20053;-72
2020/12/18 02:15:52;;;;;;;18.83;6.63;;;4.60;99.90;;;;;;5025446;28;20045;-72
2020/12/18 02:18:32;;;;;;;21.05;7.05;;;4.60;99.90;;;;;;5052192;28;20859;-72
2020/12/18 02:21:02;;;;;;;23.00;6.93;;;4.60;99.90;;;;;;5032665;28;20055;-71
2020/12/18 02:23:30;;;;;;;26.38;7.57;;;4.60;99.90;;;;;;5017253;28;20040;-72
2020/12/18 02:26:11;;;;;;;19.48;6.43;;;4.50;99.90;;;;;;5031359;28;20080;-72
2020/12/18 02:28:47;;;;;;;23.02;6.85;;;4.50;99.90;;;;;;5043646;28;20512;-72
2020/12/18 02:31:18;;;;;;;25.10;7.18;;;4.50;99.90;;;;;;5032844;28;20104;-72
2020/12/18 02:34:04;;;;;;;19.30;7.32;;;4.50;99.90;;;;;;5049765;28;20056;-72
2020/12/18 02:36:35;;;;;;;25.35;8.10;;;4.50;99.90;;;;;;5032668;28;20491;-74
2020/12/18 02:39:05;;;;;;;23.85;7.72;;;4.50;99.90;;;;;;5035691;28;20049;-73
2020/12/18 02:41:35;;;;;;;23.10;7.75;;;4.50;99.90;;;;;;5027930;28;20076;-72
2020/12/18 02:44:20;;;;;;;25.42;7.82;;;4.50;99.90;;;;;;5035845;28;20048;-72
2020/12/18 02:47:21;;;;;;;23.75;7.57;;;4.50;99.90;;;;;;4976739;28;20038;-71
2020/12/18 02:49:49;;;;;;;26.77;9.13;;;4.50;99.90;;;;;;4991115;28;20050;-71
2020/12/18 02:52:31;;;;;;;28.70;7.97;;;4.50;99.90;;;;;;4983070;28;20489;-72
2020/12/18 02:55:17;;;;;;;24.92;9.07;;;4.40;99.90;;;;;;4979294;28;20129;-72
2020/12/18 02:58:20;;;;;;;31.37;9.23;;;4.40;99.90;;;;;;4952497;28;20051;-72
2020/12/18 03:00:52;;;;;;;29.25;8.85;;;4.50;99.90;;;;;;4935196;29;20460;-72
2020/12/18 03:03:21;;;;;;;31.95;8.60;;;4.40;99.90;;;;;;4932469;29;20116;-71
2020/12/18 03:05:51;;;;;;;30.48;9.50;;;4.40;99.90;;;;;;4954129;29;20134;-71
2020/12/18 03:08:38;;;;;;;30.08;9.23;;;4.40;99.90;;;;;;4950627;28;20102;-71
2020/12/18 03:11:08;;;;;;;30.08;9.40;;;4.40;99.90;;;;;;4950578;29;20049;-72
2020/12/18 03:13:34;;;;;;;31.50;9.95;;;4.40;99.90;;;;;;4950509;28;20050;-72
2020/12/18 03:16:01;;;;;;;27.58;9.25;;;4.40;99.90;;;;;;4935923;29;20534;-72
2020/12/18 03:18:48;;;;;;;32.08;9.63;;;4.40;99.90;;;;;;4934111;28;20499;-72
2020/12/18 03:21:15;;;;;;;29.98;9.10;;;4.50;99.90;;;;;;4965782;28;20460;-72
2020/12/18 03:24:01;;;;;;;31.90;9.48;;;4.40;99.90;;;;;;5017993;28;20052;-72
2020/12/18 03:26:34;;;;;;;;;;;4.40;99.90;;;;;;4986673;28;20141;-72
2020/12/18 03:29:08;;;;;;;31.75;8.35;;;4.50;99.90;;;;;;4989622;28;20012;-72
2020/12/18 03:31:36;;;;;;;32.97;10.00;;;4.50;99.90;;;;;;5002501;28;20047;-72
2020/12/18 03:34:03;;;;;;;33.42;10.05;;;4.50;99.90;;;;;;5068384;28;20063;-72
2020/12/18 03:36:37;;;;;;;34.15;10.35;;;4.50;99.90;;;;;;5046577;28;20052;-72
2020/12/18 03:39:09;;;;;;;31.25;10.20;;;4.50;99.90;;;;;;5068302;28;20040;-72
2020/12/18 03:41:42;;;;;;;31.52;10.40;;;4.50;99.90;;;;;;5053189;28;20044;-73
2020/12/18 03:44:09;;;;;;;32.63;9.57;;;4.50;99.90;;;;;;5048490;28;20398;-72
2020/12/18 03:46:37;;;;;;;32.63;9.35;;;4.50;99.90;;;;;;5069646;28;20064;-72
2020/12/18 03:49:23;;;;;;;37.83;10.70;;;4.50;99.90;;;;;;5063208;28;20080;-73
2020/12/18 03:51:57;;;;;;;34.53;9.63;;;4.50;99.90;;;;;;5062331;28;20407;-72
2020/12/18 03:54:30;;;;;;;31.63;10.02;;;4.50;99.90;;;;;;5055802;28;20065;-73
2020/12/18 03:57:10;;;;;;;33.90;11.23;;;4.50;99.90;;;;;;5052916;28;20818;-72
2020/12/18 03:59:56;;;;;;;31.95;9.32;;;4.50;99.90;;;;;;5060643;28;20124;-72
2020/12/18 04:02:38;;;;;;;30.27;8.77;;;4.60;99.90;;;;;;5065621;28;20048;-72
2020/12/18 04:05:06;;;;;;;26.33;8.60;;;4.50;99.90;;;;;;5052463;28;20131;-72
2020/12/18 04:07:33;;;;;;;27.80;9.20;;;4.50;99.90;;;;;;5044799;28;20105;-72
2020/12/18 04:10:06;;;;;;;26.60;8.50;;;4.60;99.90;;;;;;5052568;28;20052;-72
2020/12/18 04:12:46;;;;;;;27.80;9.07;;;4.50;99.90;;;;;;5049754;28;20048;-72
2020/12/18 04:15:12;;;;;;;29.27;8.73;;;4.50;99.90;;;;;;5083999;28;20561;-72
2020/12/18 04:17:46;;;;;;;25.05;8.70;;;4.60;99.90;;;;;;5060456;28;20764;-72
2020/12/18 04:20:15;;;;;;;28.83;8.13;;;4.60;99.90;;;;;;5055937;28;20053;-73
2020/12/18 04:22:55;;;;;;;26.00;8.05;;;4.60;99.90;;;;;;5051581;28;20124;-72
2020/12/18 04:25:44;;;;;;;24.50;8.75;;;4.60;99.90;;;;;;5067410;28;20052;-72
2020/12/18 04:28:11;;;;;;;25.63;8.43;;;4.50;99.90;;;;;;5046459;28;20049;-72
2020/12/18 04:30:38;;;;;;;23.25;7.70;;;4.60;99.90;;;;;;5065982;28;20041;-73
2020/12/18 04:33:05;;;;;;;25.65;8.48;;;4.60;99.90;;;;;;5068864;28;20066;-72
2020/12/18 04:35:32;;;;;;;24.40;7.95;;;4.60;99.90;;;;;;5058005;28;20520;-73
2020/12/18 04:38:12;;;;;;;28.52;7.85;;;4.60;99.90;;;;;;5044872;28;20045;-72
2020/12/18 04:41:00;;;;;;;23.90;6.53;;;4.60;99.90;;;;;;5060774;28;20045;-72
2020/12/18 04:43:39;;;;;;;23.90;7.15;;;4.50;99.90;;;;;;5068763;28;20044;-73
2020/12/18 04:46:17;;;;;;;27.50;7.60;;;4.60;99.90;;;;;;5064131;28;20048;-72
2020/12/18 04:48:46;;;;;;;;;;;4.50;99.90;;;;;;5059662;28;20139;-73
2020/12/18 04:51:19;;;;;;;21.60;6.97;;;4.60;99.90;;;;;;5039857;28;19927;-71
2020/12/18 04:53:55;;;;;;;20.83;5.70;;;4.50;99.90;;;;;;5045043;28;20538;-72
2020/12/18 04:56:39;;;;;;;24.48;6.60;;;4.50;99.90;;;;;;5040099;28;20056;-72
2020/12/18 04:59:15;;;;;;;27.10;8.10;;;4.60;99.90;;;;;;5074085;28;20075;-72
2020/12/18 05:01:54;;;;;;;16.65;4.82;;;4.50;99.90;;;;;;5063467;28;20135;-73
2020/12/18 05:04:24;;;;;;;;;;;4.60;99.90;;;;;;5061089;28;20044;-73
2020/12/18 05:07:03;;;;;;;22.27;6.63;;;4.60;99.90;;;;;;5060480;28;19921;-73
2020/12/18 05:09:41;;;;;;;27.17;6.13;;;4.60;99.90;;;;;;5055147;28;20474;-73
2020/12/18 05:12:09;;;;;;;24.67;6.88;;;4.60;99.90;;;;;;5065770;28;20040;-72
2020/12/18 05:14:40;;;;;;;25.77;7.13;;;4.60;99.90;;;;;;5068766;28;20068;-72
2020/12/18 05:17:17;;;;;;;26.85;8.60;;;4.60;99.90;;;;;;5053241;28;20544;-72
2020/12/18 05:19:44;;;;;;;26.15;7.60;;;4.60;99.90;;;;;;5053519;28;20099;-72
2020/12/18 05:22:13;;;;;;;24.38;8.13;;;4.60;99.90;;;;;;5061764;28;20049;-72
2020/12/18 05:24:58;;;;;;;26.60;7.18;;;4.60;99.90;;;;;;5050051;28;20056;-72
2020/12/18 05:27:27;;;;;;;19.23;7.00;;;4.60;99.90;;;;;;5058248;28;20391;-72
2020/12/18 05:30:03;;;;;;;21.00;6.68;;;4.60;99.90;;;;;;5063578;28;20040;-72
2020/12/18 05:32:35;;;;;;;23.77;7.13;;;4.70;99.90;;;;;;5059542;28;20052;-72
2020/12/18 05:35:06;;;;;;;22.77;7.83;;;4.60;99.90;;;;;;5057668;28;20041;-72
2020/12/18 05:38:11;;;;;;;23.17;7.07;;;4.60;99.90;;;;;;5047296;28;20037;-72
2020/12/18 05:41:10;;;;;;;27.02;8.73;;;4.70;99.90;;;;;;5045062;28;20049;-73
2020/12/18 05:43:43;;;;;;;32.38;9.25;;;4.60;99.90;;;;;;5067927;28;20036;-72
2020/12/18 05:46:42;;;;;;;24.75;7.25;;;4.60;99.90;;;;;;5062178;28;20147;-73
2020/12/18 05:49:31;;;;;;;30.40;7.75;;;4.70;99.90;;;;;;5063810;28;20132;-72
2020/12/18 05:52:08;;;;;;;26.90;7.05;;;4.70;99.90;;;;;;5089731;28;20045;-72
2020/12/18 05:54:49;;;;;;;23.10;6.22;;;4.60;99.90;;;;;;5054187;28;20438;-72
2020/12/18 05:57:16;;;;;;;23.90;6.45;;;4.70;99.90;;;;;;5060056;28;20160;-72
2020/12/18 05:59:54;;;;;;;18.70;6.70;;;4.70;99.90;;;;;;5062598;28;20109;-73
2020/12/18 06:02:42;;;;;;;20.30;7.00;;;4.70;99.90;;;;;;5050561;28;20238;-72
2020/12/18 06:05:18;;;;;;;24.02;7.68;;;4.70;99.90;;;;;;5058778;28;20055;-72
2020/12/18 06:07:55;;;;;;;20.45;6.40;;;4.70;99.90;;;;;;5059959;28;20051;-72
2020/12/18 06:10:35;;;;;;;30.15;8.95;;;4.70;99.90;;;;;;5084254;28;20057;-72
2020/12/18 06:13:15;;;;;;;30.02;11.18;;;4.60;99.90;;;;;;5059412;28;20565;-72
2020/12/18 06:16:06;;;;;;;29.73;9.73;;;4.60;99.90;;;;;;5069625;28;20044;-72
2020/12/18 06:18:44;;;;;;;31.63;11.65;;;4.60;99.90;;;;;;5049406;28;20045;-72
2020/12/18 06:21:21;;;;;;;30.80;11.00;;;4.60;99.90;;;;;;5057073;28;20148;-72
2020/12/18 06:23:49;;;;;;;28.38;9.40;;;4.50;99.90;;;;;;5062205;28;20757;-72
2020/12/18 06:26:32;;;;;;;38.38;11.35;;;4.50;99.90;;;;;;5065232;28;20526;-72
2020/12/18 06:29:18;;;;;;;37.92;11.60;;;4.50;99.90;;;;;;5067831;28;20681;-72
2020/12/18 06:32:27;;;;;;;29.83;9.50;;;4.40;99.90;;;;;;5070824;28;20127;-72
2020/12/18 06:35:37;;;;;;;36.72;10.50;;;4.50;99.90;;;;;;5065503;28;20045;-72
2020/12/18 06:38:23;;;;;;;33.00;9.65;;;4.50;99.90;;;;;;5056948;28;20075;-72
2020/12/18 06:41:25;;;;;;;24.25;8.15;;;4.50;99.90;;;;;;5078607;28;20040;-71
2020/12/18 06:44:39;;;;;;;30.67;7.95;;;4.40;99.90;;;;;;5059161;28;20048;-72
2020/12/18 06:47:30;;;;;;;30.35;8.32;;;4.40;99.90;;;;;;5076262;28;20047;-72
2020/12/18 06:50:23;;;;;;;35.72;8.40;;;4.40;99.90;;;;;;4989079;28;20473;-72
2020/12/18 06:53:04;;;;;;;29.73;8.10;;;4.40;99.90;;;;;;4987434;28;20065;-72
2020/12/18 06:55:49;;;;;;;31.15;9.73;;;4.40;99.90;;;;;;4989118;28;20069;-72
2020/12/18 06:58:35;;;;;;;36.05;10.25;;;4.40;99.90;;;;;;4989844;28;20050;-72
2020/12/18 07:01:02;;;;;;;28.15;8.85;;;4.50;99.90;;;;;;4972878;28;20061;-72
2020/12/18 07:03:46;;;;;;;27.30;9.07;;;4.40;99.90;;;;;;4988831;28;20042;-72
2020/12/18 07:06:23;;;;;;;29.70;8.00;;;4.40;99.90;;;;;;4986007;28;20161;-72
2020/12/18 07:08:51;;;;;;;26.80;7.63;;;4.50;99.90;;;;;;4972293;28;20070;-72
2020/12/18 07:11:21;;;;;;;27.35;8.98;;;4.50;99.90;;;;;;4967019;28;20052;-72
2020/12/18 07:14:00;;;;;;;27.67;6.93;;;4.40;99.90;;;;;;4988090;28;20441;-72
2020/12/18 07:16:27;;;;;;;28.55;8.43;;;4.50;99.90;;;;;;4982377;28;20510;-72
2020/12/18 07:18:58;;;;;;;32.45;7.90;;;4.40;99.90;;;;;;4977143;28;20051;-72
2020/12/18 07:21:26;;;;;;;28.70;7.72;;;4.50;99.90;;;;;;4990695;28;20054;-72
2020/12/18 07:23:53;;;;;;;25.38;7.53;;;4.50;99.90;;;;;;4984620;28;20490;-72
2020/12/18 07:26:20;;;;;;;29.02;8.48;;;4.50;99.90;;;;;;5001783;28;20042;-72
2020/12/18 07:28:47;;;;;;;23.80;6.15;;;4.60;99.90;;;;;;5054733;28;20056;-72
2020/12/18 07:31:16;;;;;;;21.05;7.07;;;4.50;99.90;;;;;;5068786;28;20098;-72
2020/12/18 07:33:44;;;;;;;25.65;7.40;;;4.60;99.90;;;;;;5067841;28;20503;-72
2020/12/18 07:36:11;;;;;;;24.98;7.85;;;4.60;99.90;;;;;;5073740;28;20089;-72
2020/12/18 07:38:39;;;;;;;24.50;7.53;;;4.60;99.90;;;;;;5067221;28;20086;-72
2020/12/18 07:41:08;;;;;;;26.15;7.45;;;4.60;99.90;;;;;;5072075;28;20040;-72
2020/12/18 07:43:36;;;;;;;26.25;7.05;;;4.60;99.90;;;;;;5066544;28;20136;-72
2020/12/18 07:46:05;;;;;;;26.27;8.23;;;4.50;99.90;;;;;;5052372;28;20048;-71
2020/12/18 07:48:39;;;;;;;36.80;8.70;;;4.50;99.90;;;;;;5065343;28;20443;-72
2020/12/18 07:51:18;;;;;;;37.75;8.77;;;4.50;99.90;;;;;;5047957;28;20052;-72
2020/12/18 07:53:46;;;;;;;32.83;8.90;;;4.50;99.90;;;;;;5085480;28;20048;-71
2020/12/18 07:56:16;;;;;;;46.47;14.40;;;4.50;99.90;;;;;;5062122;28;20041;-71
2020/12/18 07:59:04;;;;;;;38.40;13.18;;;4.50;99.90;;;;;;5057206;28;20123;-71
2020/12/18 08:01:32;;;;;;;34.10;12.15;;;4.50;99.90;;;;;;5056716;28;20045;-73
2020/12/18 08:04:25;;;;;;;37.13;11.43;;;4.50;99.90;;;;;;5052585;28;20049;-67
2020/12/18 08:06:55;;;;;;;36.60;12.20;;;4.60;99.90;;;;;;5062973;28;20420;-68
2020/12/18 08:09:25;;;;;;;30.58;8.48;;;4.60;99.90;;;;;;5058279;28;20047;-68
2020/12/18 08:11:52;;;;;;;26.65;7.47;;;4.70;99.90;;;;;;5071425;28;20432;-67
2020/12/18 08:14:19;;;;;;;30.25;8.15;;;4.60;99.90;;;;;;5058370;28;20040;-67
2020/12/18 08:16:46;;;;;;;29.80;7.72;;;4.70;99.90;;;;;;5026465;28;20043;-67
2020/12/18 08:19:13;;;;;;;28.73;6.68;;;4.70;99.90;;;;;;5062381;28;20045;-67
2020/12/18 08:21:42;;;;;;;27.63;7.43;;;4.70;99.90;;;;;;5059752;28;20037;-68
2020/12/18 08:24:17;;;;;;;29.13;7.55;;;4.80;99.90;;;;;;5062725;28;20036;-68
2020/12/18 08:26:56;;;;;;;29.45;7.00;;;4.80;99.90;;;;;;5060994;28;20574;-68
2020/12/18 08:29:23;;;;;;;23.30;7.00;;;4.80;99.90;;;;;;5061764;28;20052;-68
2020/12/18 08:31:55;;;;;;;25.52;7.82;;;4.80;99.90;;;;;;5054320;28;20076;-68
2020/12/18 08:34:27;;;;;;;23.02;6.88;;;4.80;99.90;;;;;;5062501;28;20041;-68
2020/12/18 08:36:54;;;;;;;25.65;8.70;;;4.80;99.90;;;;;;5064218;28;20067;-67
2020/12/18 08:39:21;;;;;;;33.55;8.35;;;4.80;99.90;;;;;;5061411;28;20044;-67
2020/12/18 08:41:51;;;;;;;30.05;7.43;;;4.80;99.90;;;;;;5062363;28;20045;-67
2020/12/18 08:44:19;;;;;;;28.50;7.82;;;4.80;99.90;;;;;;5043798;28;20135;-68
2020/12/18 08:46:47;;;;;;;33.55;9.02;;;4.80;99.90;;;;;;5066007;28;20049;-68
2020/12/18 08:49:20;;;;;;;29.85;9.48;;;4.70;99.90;;;;;;5057676;28;20368;-67
2020/12/18 08:51:49;;;;;;;30.77;9.70;;;4.70;99.90;;;;;;5063061;28;20056;-67
2020/12/18 08:54:24;;;;;;;32.78;9.00;;;4.70;99.90;;;;;;5057313;28;20123;-68
2020/12/18 08:57:10;;;;;;;32.10;8.73;;;4.60;99.90;;;;;;5062959;28;20043;-68
2020/12/18 08:59:38;;;;;;;30.02;8.88;;;4.60;99.90;;;;;;5058986;28;20077;-67
2020/12/18 09:02:14;;;;;;;36.60;10.35;;;4.60;99.90;;;;;;5063359;28;20047;-67
2020/12/18 09:04:41;;;;;;;47.60;15.38;;;4.70;99.90;;;;;;5057897;28;20456;-68
2020/12/18 09:07:08;;;;;;;36.58;9.45;;;4.70;99.90;;;;;;5064929;28;20041;-69
2020/12/18 09:09:34;;;;;;;37.95;9.30;;;4.60;99.90;;;;;;5058832;28;20048;-68
2020/12/18 09:12:16;;;;;;;32.53;9.38;;;4.60;99.90;;;;;;5042628;28;20055;-68
2020/12/18 09:14:43;;;;;;;33.72;9.25;;;4.70;99.90;;;;;;5074852;28;20115;-68
2020/12/18 09:17:10;;;;;;;31.45;8.98;;;4.70;99.90;;;;;;5056371;28;20170;-68
2020/12/18 09:19:46;;;;;;;32.63;8.40;;;4.70;99.90;;;;;;5056433;28;20653;-68
2020/12/18 09:22:13;;;;;;;31.23;8.20;;;4.70;99.90;;;;;;5056517;28;20075;-68
2020/12/18 09:24:41;;;;;;;26.83;7.80;;;4.70;99.90;;;;;;5045948;28;20115;-68
2020/12/18 09:27:12;;;;;;;29.50;8.35;;;4.70;99.90;;;;;;5038117;28;20066;-67
2020/12/18 09:29:39;;;;;;;25.92;8.30;;;4.70;99.90;;;;;;5066053;28;20067;-67
2020/12/18 09:32:06;;;;;;;30.60;8.75;;;4.80;99.90;;;;;;5059450;28;20774;-68
2020/12/18 09:34:33;;;;;;;35.67;11.45;;;4.80;99.90;;;;;;5046818;28;20052;-68
2020/12/18 09:37:10;;;;;;;32.33;9.05;;;4.90;99.90;;;;;;5062998;28;20116;-68
2020/12/18 09:39:37;;;;;;;28.13;9.45;;;4.90;99.90;;;;;;5056692;28;20808;-69
2020/12/18 09:42:04;;;;;;;27.92;7.78;;;4.90;99.90;;;;;;5054377;28;20051;-67
2020/12/18 09:44:31;;;;;;;24.00;6.70;;;4.80;99.90;;;;;;5061573;28;20738;-67
2020/12/18 09:46:57;;;;;;;25.75;6.65;;;4.90;99.90;;;;;;5060833;28;20067;-67
2020/12/18 09:49:24;;;;;;;24.58;7.35;;;4.80;99.90;;;;;;5060532;28;20052;-67
2020/12/18 09:51:50;;;;;;;24.52;7.30;;;4.90;99.90;;;;;;5057240;28;20486;-67
2020/12/18 09:54:17;;;;;;;31.55;8.30;;;4.90;99.90;;;;;;5062986;28;20044;-67
2020/12/18 09:56:44;;;;;;;30.45;7.70;;;4.90;99.90;;;;;;5055177;28;20044;-68
2020/12/18 09:59:12;;;;;;;21.85;6.85;;;4.90;99.90;;;;;;5056294;28;20048;-67
2020/12/18 10:01:39;;;;;;;25.92;7.32;;;4.90;99.90;;;;;;5062745;28;20430;-67
2020/12/18 10:04:05;;;;;;;39.55;10.90;;;4.80;99.90;;;;;;5059633;28;20048;-67
2020/12/18 10:06:32;;;;;;;27.73;7.43;;;4.80;99.90;;;;;;5061494;28;20071;-67
2020/12/18 10:08:59;;;;;;;31.10;8.18;;;4.80;99.90;;;;;;5063724;28;20060;-67
2020/12/18 10:11:28;;;;;;;29.27;8.35;;;4.80;99.90;;;;;;5067183;28;20052;-68
2020/12/18 10:13:54;;;;;;;25.95;6.80;;;4.90;99.90;;;;;;5065848;28;20048;-69
2020/12/18 10:16:21;;;;;;;22.20;7.10;;;4.90;99.90;;;;;;5062144;28;20044;-67
2020/12/18 10:18:47;;;;;;;27.80;6.38;;;4.90;99.90;;;;;;5061828;28;20033;-67
2020/12/18 10:21:14;;;;;;;27.33;7.03;;;4.90;99.90;;;;;;5069444;28;20499;-67
2020/12/18 10:23:40;;;;;;;28.23;8.18;;;4.90;99.90;;;;;;5056519;28;20568;-67
2020/12/18 10:26:07;;;;;;;26.90;6.72;;;4.90;99.90;;;;;;5068334;28;20079;-67
2020/12/18 10:28:34;;;;;;;31.38;7.82;;;4.90;99.90;;;;;;5046821;28;20041;-67
2020/12/18 10:31:01;;;;;;;25.67;6.65;;;5.00;99.90;;;;;;5056824;28;20842;-68
2020/12/18 10:33:28;;;;;;;21.67;6.80;;;5.00;99.90;;;;;;5042822;28;20048;-67
2020/12/18 10:35:54;;;;;;;24.40;7.03;;;5.00;99.90;;;;;;5066432;28;20040;-67
2020/12/18 10:38:24;;;;;;;27.98;6.82;;;5.10;99.90;;;;;;5067981;28;20044;-68
2020/12/18 10:40:51;;;;;;;28.02;7.22;;;5.00;99.90;;;;;;5052990;28;20069;-67
2020/12/18 10:43:17;;;;;;;32.88;8.73;;;5.10;99.90;;;;;;5059259;28;20048;-68
2020/12/18 10:45:44;;;;;;;25.10;7.60;;;5.10;99.90;;;;;;5061245;28;20052;-67
2020/12/18 10:48:10;;;;;;;27.63;8.40;;;5.10;99.90;;;;;;5043562;28;20059;-68
2020/12/18 10:50:37;;;;;;;33.58;9.40;;;5.10;99.90;;;;;;5052926;28;20052;-67
2020/12/18 10:53:05;;;;;;;27.02;7.68;;;5.10;99.90;;;;;;5056777;28;20049;-68
2020/12/18 10:55:31;;;;;;;29.27;8.00;;;5.10;99.90;;;;;;5066729;28;20164;-68
2020/12/18 10:57:58;;;;;;;24.92;7.03;;;5.10;99.90;;;;;;5065844;28;20048;-68
2020/12/18 11:00:25;;;;;;;28.33;7.82;;;5.10;99.90;;;;;;5067234;28;20055;-67
2020/12/18 11:02:52;;;;;;;26.00;7.70;;;5.00;99.90;;;;;;5065321;28;20041;-67
2020/12/18 11:05:18;;;;;;;28.75;8.10;;;5.00;99.90;;;;;;5067283;28;20056;-69
2020/12/18 11:07:45;;;;;;;23.45;7.47;;;5.00;99.90;;;;;;5046990;28;20044;-67
2020/12/18 11:10:11;;;;;;;26.45;7.38;;;5.00;99.90;;;;;;5058326;28;20426;-67
2020/12/18 11:12:38;;;;;;;26.65;7.30;;;5.00;99.90;;;;;;5057600;28;20068;-67
2020/12/18 11:15:05;;;;;;;25.80;8.30;;;5.00;99.90;;;;;;5058878;28;20071;-67
2020/12/18 11:17:31;;;;;;;30.58;7.45;;;5.00;99.90;;;;;;5062229;28;20090;-67
2020/12/18 11:19:58;;;;;;;26.80;7.68;;;4.90;99.90;;;;;;5057983;28;20068;-69
2020/12/18 11:22:25;;;;;;;33.85;8.57;;;5.00;99.90;;;;;;5059433;28;20071;-69
2020/12/18 11:24:52;;;;;;;27.83;7.70;;;5.00;99.90;;;;;;5066133;28;20402;-67
2020/12/18 11:27:23;;;;;;;28.13;7.88;;;5.10;99.90;;;;;;5068191;28;20044;-67
2020/12/18 11:29:49;;;;;;;30.02;8.05;;;5.10;99.90;;;;;;5052953;28;20052;-67
2020/12/18 11:32:19;;;;;;;32.00;8.07;;;5.10;99.90;;;;;;5062082;28;20076;-67
2020/12/18 11:34:45;;;;;;;29.15;8.52;;;5.00;99.90;;;;;;5056995;28;20059;-68
2020/12/18 11:37:12;;;;;;;28.70;8.05;;;5.00;99.90;;;;;;5046039;28;20045;-66
2020/12/18 11:39:39;;;;;;;23.65;7.82;;;5.00;99.90;;;;;;5061705;28;20123;-67
2020/12/18 11:42:06;;;;;;;28.55;7.70;;;5.00;99.90;;;;;;5057532;28;20037;-67
2020/12/18 11:44:33;;;;;;;32.55;8.27;;;5.10;99.90;;;;;;5061946;28;20059;-67
2020/12/18 11:46:59;;;;;;;31.55;9.35;;;5.00;99.90;;;;;;5062783;28;20480;-67
2020/12/18 11:49:26;;;;;;;30.15;8.32;;;5.00;99.90;;;;;;5063847;28;20032;-68
2020/12/18 11:51:52;;;;;;;29.02;8.32;;;5.10;99.90;;;;;;5070399;28;20045;-68
2020/12/18 11:54:19;;;;;;;31.17;9.50;;;5.10;99.90;;;;;;5064880;28;20044;-68
2020/12/18 11:56:48;;;;;;;35.25;8.75;;;5.10;99.90;;;;;;5071380;28;20039;-69
2020/12/18 11:59:15;;;;;;;24.90;7.90;;;5.10;99.90;;;;;;5063770;28;20162;-68
2020/12/18 12:01:42;;;;;;;22.25;6.50;;;5.10;99.90;;;;;;5058071;28;20044;-69
2020/12/18 12:04:09;;;;;;;25.92;7.25;;;5.10;99.90;;;;;;5070703;28;20052;-68
2020/12/18 12:06:36;;;;;;;31.98;8.20;;;5.10;99.90;;;;;;5067137;28;20041;-69
2020/12/18 12:09:03;;;;;;;27.00;8.20;;;5.10;99.90;;;;;;5057602;28;20536;-67
2020/12/18 12:11:40;;;;;;;15.90;5.97;;;5.10;99.90;;;;;;5052489;28;20443;-67
2020/12/18 12:14:07;;;;;;;24.73;7.40;;;5.00;99.90;;;;;;5061196;28;20051;-66
2020/12/18 12:16:35;;;;;;;29.88;8.50;;;5.00;99.90;;;;;;5050905;28;20048;-66
2020/12/18 12:19:03;;;;;;;30.08;7.32;;;5.10;99.90;;;;;;5063415;28;20040;-66
2020/12/18 12:21:36;;;;;;;24.00;7.28;;;5.10;99.90;;;;;;5064659;28;20424;-66
2020/12/18 12:24:04;;;;;;;24.80;7.32;;;5.00;99.90;;;;;;5067044;28;20482;-67
2020/12/18 12:26:31;;;;;;;27.42;7.15;;;5.10;99.90;;;;;;5060848;28;20059;-66
2020/12/18 12:28:57;;;;;;;27.67;7.90;;;5.10;99.90;;;;;;5061259;28;20122;-67
2020/12/18 12:31:25;;;;;;;28.92;8.32;;;5.10;99.90;;;;;;5059995;28;20051;-66
2020/12/18 12:33:51;;;;;;;27.83;7.95;;;5.20;99.90;;;;;;5058331;28;20057;-66
2020/12/18 12:36:19;;;;;;;24.88;7.95;;;5.20;99.90;;;;;;5059251;28;20557;-67
2020/12/18 12:38:47;;;;;;;26.75;7.72;;;5.10;99.90;;;;;;5064232;28;20708;-66
2020/12/18 12:41:14;;;;;;;26.77;8.32;;;5.10;99.90;;;;;;5060326;28;20048;-66
2020/12/18 12:43:40;;;;;;;26.88;8.50;;;5.10;99.90;;;;;;5066700;28;20049;-67
2020/12/18 12:46:09;;;;;;;32.60;8.27;;;5.10;99.90;;;;;;5058495;28;20040;-67
2020/12/18 12:48:35;;;;;;;28.20;8.95;;;5.10;99.90;;;;;;5051979;28;22079;-67
2020/12/18 12:51:02;;;;;;;27.65;8.23;;;5.00;99.90;;;;;;5046268;28;20075;-68
2020/12/18 12:53:29;;;;;;;28.17;8.10;;;5.10;99.90;;;;;;5055272;28;20052;-68
2020/12/18 12:55:55;;;;;;;31.17;7.68;;;5.00;99.90;;;;;;5060948;28;20771;-66
2020/12/18 12:58:22;;;;;;;30.45;7.70;;;5.00;99.90;;;;;;5061982;28;20060;-66
2020/12/18 13:00:49;;;;;;;31.27;8.57;;;4.90;99.90;;;;;;5061860;28;20055;-66
2020/12/18 13:03:16;;;;;;;24.15;7.85;;;4.90;99.90;;;;;;5059757;28;20071;-66
2020/12/18 13:05:44;;;;;;;25.73;7.13;;;4.90;99.90;;;;;;5062043;28;20704;-66
2020/12/18 13:08:13;;;;;;;28.58;7.80;;;5.00;99.90;;;;;;5059544;28;20052;-66
2020/12/18 13:10:41;;;;;;;29.98;7.25;;;4.90;99.90;;;;;;5062632;28;20078;-66
2020/12/18 13:13:08;;;;;;;25.90;6.93;;;4.90;99.90;;;;;;5061534;28;20499;-67